createdAt,value
2019-05-20T00:00:41.247Z,12.90
2019-05-20T00:03:10.822Z,12.35
2019-05-20T00:05:39.938Z,13.40
2019-05-20T00:08:09.038Z,13.37
2019-05-20T00:10:38.002Z,13.40
2019-05-20T00:13:06.914Z,13.43
2019-05-20T00:15:36.019Z,13.17
2019-05-20T00:18:05.446Z,13.83
2019-05-20T00:20:34.334Z,14.33
2019-05-20T00:23:03.380Z,14.83
2019-05-20T00:25:32.696Z,14.27
2019-05-20T00:28:01.626Z,13.77
2019-05-20T00:30:30.715Z,14.37
2019-05-20T00:32:59.678Z,14.53
2019-05-20T00:35:29.002Z,14.15
2019-05-20T00:37:58.068Z,14.33
2019-05-20T00:40:27.140Z,14.23
2019-05-20T00:42:56.339Z,14.83
2019-05-20T00:45:25.382Z,14.47
2019-05-20T00:47:54.435Z,14.77
2019-05-20T00:50:23.502Z,14.38
2019-05-20T00:52:52.553Z,15.47
2019-05-20T00:55:27.551Z,14.87
2019-05-20T00:57:56.534Z,15.60
2019-05-20T01:00:25.966Z,15.70
2019-05-20T01:02:57.300Z,15.60
2019-05-20T01:05:25.796Z,15.95
2019-05-20T01:07:54.772Z,16.30
2019-05-20T01:10:23.859Z,15.17
2019-05-20T01:12:52.878Z,16.20
2019-05-20T01:15:22.419Z,15.90
2019-05-20T01:17:51.335Z,15.80
2019-05-20T01:20:20.474Z,16.47
2019-05-20T01:22:49.771Z,16.90
2019-05-20T01:25:18.811Z,15.60
2019-05-20T01:27:47.772Z,18.80
2019-05-20T01:30:16.910Z,16.83
2019-05-20T01:32:45.840Z,15.97
2019-05-20T01:35:15.073Z,17.33
2019-05-20T01:37:44.004Z,16.90
2019-05-20T01:40:13.240Z,17.20
2019-05-20T01:42:42.216Z,16.90
2019-05-20T01:45:11.596Z,17.00
2019-05-20T01:47:40.674Z,17.30
2019-05-20T01:50:09.732Z,16.83
2019-05-20T01:52:38.709Z,16.63
2019-05-20T01:55:08.976Z,15.97
2019-05-20T01:57:37.892Z,16.43
2019-05-20T02:00:08.113Z,17.73
2019-05-20T02:02:37.153Z,16.20
2019-05-20T02:05:06.817Z,17.07
2019-05-20T02:07:35.773Z,17.40
2019-05-20T02:10:05.047Z,16.53
2019-05-20T02:12:34.874Z,18.25
2019-05-20T02:15:10.369Z,18.57
2019-05-20T02:17:39.410Z,19.00
2019-05-20T02:20:08.829Z,19.20
2019-05-20T02:22:37.877Z,20.10
2019-05-20T02:25:07.094Z,19.67
2019-05-20T02:27:36.145Z,19.70
2019-05-20T02:30:05.401Z,20.10
2019-05-20T02:32:34.525Z,18.87
2019-05-20T02:35:03.570Z,19.03
2019-05-20T02:37:32.731Z,19.97
2019-05-20T02:40:01.702Z,20.57
2019-05-20T02:42:30.775Z,20.43
2019-05-20T02:45:00.165Z,20.73
2019-05-20T02:47:29.182Z,21.57
2019-05-20T02:49:58.154Z,21.70
2019-05-20T02:52:27.359Z,20.43
2019-05-20T02:54:56.322Z,21.83
2019-05-20T02:57:25.350Z,21.03
2019-05-20T02:59:54.317Z,20.77
2019-05-20T03:02:23.350Z,20.48
2019-05-20T03:04:52.407Z,22.63
2019-05-20T03:07:21.435Z,22.15
2019-05-20T03:09:50.457Z,21.87
2019-05-20T03:12:19.422Z,21.83
2019-05-20T03:14:48.449Z,25.77
2019-05-20T03:17:17.940Z,22.87
2019-05-20T03:19:46.911Z,23.70
2019-05-20T03:22:15.915Z,22.93
2019-05-20T03:24:44.950Z,23.53
2019-05-20T03:27:13.940Z,23.37
2019-05-20T03:29:43.301Z,22.87
2019-05-20T03:32:12.263Z,23.53
2019-05-20T03:34:48.010Z,24.03
2019-05-20T03:37:12.337Z,26.63
2019-05-20T03:39:41.227Z,27.70
2019-05-20T03:42:10.430Z,31.57
2019-05-20T03:44:39.339Z,31.53
2019-05-20T03:47:08.312Z,32.03
2019-05-20T03:49:37.380Z,34.27
2019-05-20T03:52:06.680Z,31.73
2019-05-20T03:54:35.643Z,34.10
2019-05-20T03:57:04.754Z,31.93
2019-05-20T03:59:33.796Z,34.23
2019-05-20T04:02:02.844Z,31.73
2019-05-20T04:04:32.301Z,34.47
2019-05-20T04:07:01.327Z,34.53
2019-05-20T04:09:30.211Z,34.67
2019-05-20T04:11:59.608Z,34.93
2019-05-20T04:14:28.559Z,34.97
2019-05-20T04:16:57.536Z,34.60
2019-05-20T04:19:26.497Z,39.90
2019-05-20T04:21:55.521Z,32.67
2019-05-20T04:24:24.510Z,35.23
2019-05-20T04:26:58.445Z,35.40
2019-05-20T04:29:27.561Z,33.03
2019-05-20T04:31:56.620Z,33.80
2019-05-20T04:34:25.691Z,33.40
2019-05-20T04:36:55.617Z,32.37
2019-05-20T04:39:25.212Z,36.50
2019-05-20T04:41:54.531Z,35.73
2019-05-20T04:44:23.620Z,37.30
2019-05-20T04:46:52.909Z,33.03
2019-05-20T04:49:21.958Z,41.27
2019-05-20T04:51:50.924Z,35.53
2019-05-20T04:54:19.965Z,39.43
2019-05-20T04:56:49.356Z,41.40
2019-05-20T04:59:18.417Z,40.10
2019-05-20T05:01:47.473Z,39.87
2019-05-20T05:04:16.473Z,39.40
2019-05-20T05:06:45.584Z,53.20
2019-05-20T05:09:15.720Z,45.33
2019-05-20T05:11:44.988Z,40.43
2019-05-20T05:14:14.336Z,46.30
2019-05-20T05:16:43.501Z,56.83
2019-05-20T05:19:13.105Z,50.77
2019-05-20T05:21:42.229Z,53.20
2019-05-20T05:24:11.437Z,50.10
2019-05-20T05:26:40.861Z,52.73
2019-05-20T05:32:13.421Z,56.47
2019-05-20T05:34:42.565Z,59.17
2019-05-20T05:37:11.609Z,55.07
2019-05-20T05:39:40.517Z,58.63
2019-05-20T05:42:09.579Z,57.63
2019-05-20T05:44:38.569Z,53.73
2019-05-20T05:47:07.797Z,54.97
2019-05-20T05:49:36.725Z,56.93
2019-05-20T05:52:05.798Z,60.47
2019-05-20T05:54:34.857Z,57.23
2019-05-20T05:57:03.902Z,59.57
2019-05-20T05:59:32.886Z,50.67
2019-05-20T06:02:01.854Z,54.97
2019-05-20T06:04:30.825Z,57.57
2019-05-20T06:06:59.738Z,58.60
2019-05-20T06:09:28.620Z,54.80
2019-05-20T06:11:57.667Z,55.63
2019-05-20T06:14:26.980Z,60.30
2019-05-20T06:16:55.983Z,49.60
2019-05-20T06:19:24.942Z,51.60
2019-05-20T06:21:54.162Z,48.43
2019-05-20T06:24:23.286Z,50.27
2019-05-20T06:26:52.271Z,53.90
2019-05-20T06:29:21.303Z,51.53
2019-05-20T06:31:50.467Z,53.10
2019-05-20T06:34:19.538Z,53.73
2019-05-20T06:36:50.791Z,49.03
2019-05-20T06:39:19.846Z,51.30
2019-05-20T06:41:48.816Z,50.90
2019-05-20T06:44:17.855Z,55.50
2019-05-20T06:46:46.884Z,52.23
2019-05-20T06:49:15.872Z,53.83
2019-05-20T06:51:45.000Z,56.37
2019-05-20T06:54:14.111Z,54.60
2019-05-20T06:56:43.569Z,54.83
2019-05-20T06:59:12.664Z,53.30
2019-05-20T07:01:41.712Z,47.97
2019-05-20T07:04:10.925Z,47.97
2019-05-20T07:06:46.897Z,47.00
2019-05-20T07:09:10.857Z,45.00
2019-05-20T07:11:39.791Z,47.90
2019-05-20T07:14:08.754Z,46.00
2019-05-20T07:16:38.064Z,51.60
2019-05-20T07:19:06.983Z,45.57
2019-05-20T07:21:35.955Z,52.07
2019-05-20T07:24:05.272Z,44.23
2019-05-20T07:26:34.310Z,45.80
2019-05-20T07:29:03.377Z,47.60
2019-05-20T07:31:32.465Z,46.33
2019-05-20T07:34:01.446Z,45.83
2019-05-20T07:36:30.576Z,46.20
2019-05-20T07:38:59.452Z,45.17
2019-05-20T07:41:28.624Z,39.70
2019-05-20T07:43:57.693Z,40.37
2019-05-20T07:46:26.944Z,44.20
2019-05-20T07:48:56.136Z,49.23
2019-05-20T07:51:25.344Z,46.13
2019-05-20T07:53:54.532Z,46.07
2019-05-20T07:56:26.983Z,44.58
2019-05-20T07:58:58.940Z,43.60
2019-05-20T08:01:28.105Z,44.10
2019-05-20T08:03:57.012Z,45.97
2019-05-20T08:06:26.082Z,42.87
2019-05-20T08:08:55.273Z,46.13
2019-05-20T08:11:24.360Z,47.80
2019-05-20T08:13:53.390Z,52.30
2019-05-20T08:16:22.578Z,49.23
2019-05-20T08:18:51.723Z,50.07
2019-05-20T08:21:20.810Z,46.10
2019-05-20T08:23:50.376Z,46.03
2019-05-20T08:26:19.521Z,44.90
2019-05-20T08:28:48.665Z,43.33
2019-05-20T08:31:17.769Z,41.57
2019-05-20T08:33:46.793Z,43.37
2019-05-20T08:36:15.901Z,41.50
2019-05-20T08:38:44.988Z,41.57
2019-05-20T08:41:14.595Z,41.63
2019-05-20T08:43:43.649Z,39.07
2019-05-20T08:46:12.714Z,39.63
2019-05-20T08:48:41.717Z,37.17
2019-05-20T08:51:10.968Z,37.03
2019-05-20T08:53:39.948Z,35.63
2019-05-20T08:56:09.060Z,40.40
2019-05-20T08:58:38.166Z,36.43
2019-05-20T09:01:08.196Z,37.00
2019-05-20T09:03:38.011Z,34.40
2019-05-20T09:06:07.042Z,34.30
2019-05-20T09:08:36.009Z,36.87
2019-05-20T09:11:05.039Z,37.50
2019-05-20T09:13:34.018Z,41.10
2019-05-20T09:16:03.055Z,35.60
2019-05-20T09:18:32.500Z,39.27
2019-05-20T09:21:01.663Z,35.20
2019-05-20T09:23:30.733Z,38.40
2019-05-20T09:25:59.642Z,40.73
2019-05-20T09:28:28.644Z,41.13
2019-05-20T09:30:57.826Z,40.70
2019-05-20T09:33:26.960Z,42.00
2019-05-20T09:35:56.090Z,41.50
2019-05-20T09:38:25.102Z,39.17
2019-05-20T09:40:54.132Z,40.10
2019-05-20T09:43:23.172Z,42.97
2019-05-20T09:46:06.412Z,43.80
2019-05-20T09:48:25.223Z,40.17
2019-05-20T09:50:54.186Z,44.67
2019-05-20T09:53:23.747Z,41.33
2019-05-20T09:55:52.855Z,41.50
2019-05-20T09:58:21.928Z,47.93
2019-05-20T10:00:50.980Z,44.37
2019-05-20T10:03:19.972Z,44.70
2019-05-20T10:05:49.011Z,48.20
2019-05-20T10:08:35.868Z,46.80
2019-05-20T10:10:49.033Z,46.07
2019-05-20T10:13:18.071Z,52.33
2019-05-20T10:15:47.172Z,66.57
2019-05-20T10:18:16.625Z,50.35
2019-05-20T10:20:45.600Z,45.50
2019-05-20T10:23:15.994Z,49.90
2019-05-20T10:25:45.223Z,47.17
2019-05-20T10:28:14.566Z,49.37
2019-05-20T10:30:43.661Z,51.00
2019-05-20T10:33:12.691Z,46.50
2019-05-20T10:35:41.660Z,47.40
2019-05-20T10:38:10.644Z,43.00
2019-05-20T10:40:40.011Z,47.30
2019-05-20T10:43:09.101Z,45.43
2019-05-20T10:45:38.185Z,49.03
2019-05-20T10:48:08.884Z,50.13
2019-05-20T10:50:38.048Z,44.80
2019-05-20T10:53:07.139Z,49.50
2019-05-20T10:55:36.447Z,47.07
2019-05-20T10:58:05.552Z,48.17
2019-05-20T11:00:34.609Z,49.70
2019-05-20T11:03:03.602Z,52.03
2019-05-20T11:05:32.894Z,63.53
2019-05-20T11:08:01.961Z,53.37
2019-05-20T11:10:31.073Z,51.50
2019-05-20T11:13:00.673Z,47.07
2019-05-20T11:15:29.709Z,51.27
2019-05-20T11:17:58.681Z,50.30
2019-05-20T11:20:28.102Z,50.27
2019-05-20T11:23:00.896Z,52.77
2019-05-20T11:25:27.833Z,51.47
2019-05-20T11:27:56.802Z,53.17
2019-05-20T11:30:25.838Z,48.75
2019-05-20T11:32:54.834Z,49.87
2019-05-20T11:35:23.874Z,51.33
2019-05-20T11:37:52.947Z,52.00
2019-05-20T11:40:21.990Z,53.00
2019-05-20T11:42:51.031Z,53.47
2019-05-20T11:45:20.154Z,46.23
2019-05-20T11:47:49.109Z,45.90
2019-05-20T11:50:18.247Z,46.87
2019-05-20T11:52:47.225Z,49.83
2019-05-20T11:55:17.186Z,46.20
2019-05-20T11:57:46.180Z,46.67
2019-05-20T12:00:16.808Z,49.27
2019-05-20T12:02:45.849Z,49.47
2019-05-20T12:05:14.918Z,48.73
2019-05-20T12:07:43.894Z,42.43
2019-05-20T12:10:13.095Z,47.10
2019-05-20T12:12:45.927Z,47.40
2019-05-20T12:15:15.479Z,44.43
2019-05-20T12:17:44.562Z,43.63
2019-05-20T12:20:13.661Z,44.93
2019-05-20T12:22:42.966Z,46.47
2019-05-20T12:25:12.230Z,48.70
2019-05-20T12:27:41.234Z,43.07
2019-05-20T12:30:10.905Z,43.63
2019-05-20T12:32:39.886Z,45.93
2019-05-20T12:35:09.144Z,46.07
2019-05-20T12:37:38.229Z,46.97
2019-05-20T12:40:08.467Z,50.73
2019-05-20T12:42:37.913Z,49.63
2019-05-20T12:45:07.804Z,51.60
2019-05-20T12:47:36.807Z,45.83
2019-05-20T12:50:06.406Z,49.17
2019-05-20T12:52:35.639Z,46.90
2019-05-20T12:55:08.410Z,49.57
2019-05-20T12:57:35.703Z,48.60
2019-05-20T13:00:05.759Z,48.60
2019-05-20T13:02:34.715Z,45.23
2019-05-20T13:05:03.905Z,44.93
2019-05-20T13:07:33.201Z,46.33
2019-05-20T13:10:03.235Z,46.23
2019-05-20T13:12:32.600Z,50.63
2019-05-20T13:15:01.619Z,46.07
2019-05-20T13:17:30.594Z,45.40
2019-05-20T13:19:59.626Z,43.10
2019-05-20T13:22:28.788Z,42.97
2019-05-20T13:24:57.837Z,49.80
2019-05-20T13:27:27.067Z,42.20
2019-05-20T13:29:56.055Z,46.00
2019-05-20T13:32:25.407Z,44.03
2019-05-20T13:34:54.471Z,41.97
2019-05-20T13:37:23.723Z,42.93
2019-05-20T13:39:52.648Z,40.87
2019-05-20T13:42:21.628Z,41.17
2019-05-20T13:44:50.714Z,43.27
2019-05-20T13:47:19.939Z,41.90
2019-05-20T13:49:48.919Z,42.77
2019-05-20T13:52:17.972Z,40.57
2019-05-20T13:54:47.297Z,42.30
2019-05-20T13:57:16.463Z,40.90
2019-05-20T13:59:45.628Z,39.83
2019-05-20T14:02:14.692Z,41.53
2019-05-20T14:04:43.765Z,39.27
2019-05-20T14:07:12.804Z,40.13
2019-05-20T14:09:42.236Z,39.23
2019-05-20T14:12:11.185Z,38.93
2019-05-20T14:14:40.073Z,38.40
2019-05-20T14:17:09.338Z,36.30
2019-05-20T14:19:38.245Z,37.80
2019-05-20T14:22:07.317Z,36.93
2019-05-20T14:24:36.320Z,35.53
2019-05-20T14:27:05.323Z,36.03
2019-05-20T14:29:34.388Z,35.87
2019-05-20T14:32:03.550Z,34.17
2019-05-20T14:34:32.590Z,33.90
2019-05-20T14:37:01.655Z,32.77
2019-05-20T14:39:30.754Z,40.10
2019-05-20T14:41:59.872Z,31.63
2019-05-20T14:44:28.845Z,31.03
2019-05-20T14:46:57.925Z,32.27
2019-05-20T14:49:29.838Z,30.63
2019-05-20T14:51:59.049Z,31.10
2019-05-20T14:54:28.046Z,29.53
2019-05-20T14:56:57.193Z,28.47
2019-05-20T14:59:26.297Z,31.90
2019-05-20T15:01:55.361Z,28.97
2019-05-20T15:04:24.489Z,30.03
2019-05-20T15:06:53.557Z,29.73
2019-05-20T15:09:22.789Z,32.47
2019-05-20T15:11:51.898Z,31.03
2019-05-20T15:14:20.882Z,29.77
2019-05-20T15:16:49.857Z,28.77
2019-05-20T15:19:18.894Z,29.40
2019-05-20T15:21:47.950Z,28.20
2019-05-20T15:24:17.081Z,29.50
2019-05-20T15:26:46.119Z,28.83
2019-05-20T15:29:27.444Z,28.57
2019-05-20T15:31:45.939Z,28.17
2019-05-20T15:34:14.905Z,28.87
2019-05-20T15:36:43.965Z,28.57
2019-05-20T15:39:13.100Z,28.63
2019-05-20T15:41:42.091Z,26.37
2019-05-20T15:44:11.634Z,27.23
2019-05-20T15:46:40.719Z,25.07
2019-05-20T15:49:09.768Z,26.87
2019-05-20T15:51:38.698Z,26.40
2019-05-20T15:54:07.775Z,23.53
2019-05-20T15:56:36.899Z,25.37
2019-05-20T15:59:05.830Z,25.43
2019-05-20T16:01:35.286Z,24.33
2019-05-20T16:04:04.448Z,27.90
2019-05-20T16:06:33.595Z,24.00
2019-05-20T16:09:02.940Z,24.00
2019-05-20T16:11:35.487Z,24.97
2019-05-20T16:14:04.672Z,25.67
2019-05-20T16:16:33.724Z,25.17
2019-05-20T16:19:02.915Z,25.47
2019-05-20T16:21:31.947Z,25.43
2019-05-20T16:24:00.903Z,26.20
2019-05-20T16:26:30.146Z,25.77
2019-05-20T16:28:59.457Z,26.67
2019-05-20T16:31:28.439Z,24.97
2019-05-20T16:33:59.585Z,26.97
2019-05-20T16:36:28.240Z,27.73
2019-05-20T16:38:57.408Z,27.07
2019-05-20T16:41:26.495Z,27.60
2019-05-20T16:43:55.815Z,27.03
2019-05-20T16:46:27.268Z,26.97
2019-05-20T16:48:56.328Z,26.77
2019-05-20T16:51:25.390Z,26.80
2019-05-20T16:53:54.688Z,28.27
2019-05-20T16:56:23.797Z,25.67
2019-05-20T16:58:52.876Z,28.00
2019-05-20T17:01:22.180Z,28.67
2019-05-20T17:03:51.160Z,29.83
2019-05-20T17:06:20.224Z,31.67
2019-05-20T17:08:49.144Z,31.97
2019-05-20T17:11:18.205Z,32.60
2019-05-20T17:13:47.264Z,32.33
2019-05-20T17:16:16.315Z,32.30
2019-05-20T17:18:45.396Z,31.40
2019-05-20T17:21:14.460Z,31.13
2019-05-20T17:23:43.396Z,32.67
2019-05-20T17:26:12.697Z,34.03
2019-05-20T17:28:41.769Z,33.93
2019-05-20T17:31:10.824Z,33.50
2019-05-20T17:33:39.873Z,36.57
2019-05-20T17:36:08.934Z,34.30
2019-05-20T17:38:37.980Z,35.37
2019-05-20T17:41:07.047Z,36.03
2019-05-20T17:43:36.097Z,34.57
2019-05-20T17:46:05.289Z,35.97
2019-05-20T17:48:34.474Z,37.90
2019-05-20T17:51:03.595Z,37.20
2019-05-20T17:53:32.497Z,37.90
2019-05-20T17:56:01.552Z,34.70
2019-05-20T17:58:30.614Z,36.27
2019-05-20T18:01:13.619Z,36.53
2019-05-20T18:03:30.330Z,36.80
2019-05-20T18:05:59.406Z,36.47
2019-05-20T18:08:30.179Z,40.43
2019-05-20T18:10:59.138Z,40.83
2019-05-20T18:13:28.182Z,39.03
2019-05-20T18:15:57.197Z,38.63
2019-05-20T18:18:26.090Z,38.40
2019-05-20T18:20:56.621Z,38.77
2019-05-20T18:23:25.794Z,40.87
2019-05-20T18:25:54.746Z,36.83
2019-05-20T18:28:23.721Z,39.50
2019-05-20T18:30:52.786Z,36.07
2019-05-20T18:33:21.850Z,40.77
2019-05-20T18:35:50.906Z,36.77
2019-05-20T18:38:19.943Z,33.60
2019-05-20T18:40:49.566Z,33.67
2019-05-20T18:43:18.651Z,37.60
2019-05-20T18:45:47.647Z,36.70
2019-05-20T18:48:16.719Z,34.00
2019-05-20T18:50:45.809Z,32.60
2019-05-20T18:53:15.027Z,33.03
2019-05-20T18:55:44.090Z,32.60
2019-05-20T18:58:15.878Z,32.57
2019-05-20T19:00:45.071Z,31.77
2019-05-20T19:03:14.376Z,31.97
2019-05-20T19:05:43.461Z,33.77
2019-05-20T19:08:12.693Z,32.37
2019-05-20T19:10:41.878Z,32.67
2019-05-20T19:13:10.918Z,33.60
2019-05-20T19:15:39.989Z,33.10
2019-05-20T19:18:09.245Z,32.57
2019-05-20T19:20:38.533Z,31.27
2019-05-20T19:23:07.561Z,32.63
2019-05-20T19:25:38.027Z,32.93
2019-05-20T19:28:07.321Z,34.80
2019-05-20T19:30:36.446Z,35.73
2019-05-20T19:33:05.584Z,30.60
2019-05-20T19:35:34.758Z,32.83
2019-05-20T19:38:03.873Z,31.87
2019-05-20T19:40:32.954Z,30.90
2019-05-20T19:43:02.095Z,30.50
2019-05-20T19:45:31.190Z,28.07
2019-05-20T19:48:00.310Z,28.03
2019-05-20T19:50:29.353Z,26.90
2019-05-20T19:52:58.469Z,26.03
2019-05-20T19:55:27.473Z,26.40
2019-05-20T19:57:56.497Z,24.23
2019-05-20T20:00:25.605Z,26.43
2019-05-20T20:02:54.590Z,24.43
2019-05-20T20:05:23.677Z,24.93
2019-05-20T20:07:52.709Z,24.93
2019-05-20T20:10:21.761Z,24.03
2019-05-20T20:12:51.142Z,24.80
2019-05-20T20:15:20.464Z,24.70
2019-05-20T20:17:49.526Z,25.93
2019-05-20T20:20:18.606Z,25.53
2019-05-20T20:22:47.658Z,25.83
2019-05-20T20:25:16.708Z,26.70
2019-05-20T20:27:45.675Z,26.30
2019-05-20T20:30:14.827Z,25.53
2019-05-20T20:32:43.782Z,25.43
2019-05-20T20:35:13.794Z,24.50
2019-05-20T20:37:42.823Z,25.80
2019-05-20T20:40:11.888Z,25.03
2019-05-20T20:42:40.854Z,24.50
2019-05-20T20:45:10.042Z,23.27
2019-05-20T20:47:42.101Z,22.20
2019-05-20T20:50:10.591Z,24.07
2019-05-20T20:52:39.566Z,24.00
2019-05-20T20:55:09.044Z,24.53
2019-05-20T20:57:38.006Z,26.93
2019-05-20T21:00:07.347Z,25.13
2019-05-20T21:02:36.328Z,24.53
2019-05-20T21:05:05.586Z,23.63
2019-05-20T21:07:34.650Z,23.93
2019-05-20T21:10:04.912Z,23.00
2019-05-20T21:12:33.803Z,22.67
2019-05-20T21:15:03.183Z,24.37
2019-05-20T21:17:32.132Z,24.07
2019-05-20T21:20:01.130Z,23.80
2019-05-20T21:22:30.385Z,23.83
2019-05-20T21:24:59.347Z,23.23
2019-05-20T21:27:28.268Z,24.00
2019-05-20T21:29:57.416Z,22.73
2019-05-20T21:32:26.483Z,23.73
2019-05-20T21:34:55.427Z,21.57
2019-05-20T21:37:24.503Z,24.83
2019-05-20T21:39:53.400Z,23.27
2019-05-20T21:42:22.444Z,23.10
2019-05-20T21:44:51.358Z,23.67
2019-05-20T21:47:20.368Z,24.07
2019-05-20T21:49:49.340Z,24.33
2019-05-20T21:52:18.288Z,25.10
2019-05-20T21:54:47.174Z,25.57
2019-05-20T21:57:16.487Z,22.40
2019-05-20T21:59:45.378Z,22.73
2019-05-20T22:02:14.434Z,21.90
2019-05-20T22:04:43.480Z,22.30
2019-05-20T22:07:12.511Z,23.37
2019-05-20T22:09:41.559Z,23.73
2019-05-20T22:12:10.951Z,24.57
2019-05-20T22:14:39.983Z,23.63
2019-05-20T22:17:08.868Z,23.97
2019-05-20T22:19:37.839Z,21.07
2019-05-20T22:22:30.860Z,22.83
2019-05-20T22:25:00.138Z,21.17
2019-05-20T22:27:29.336Z,21.07
2019-05-20T22:29:58.357Z,22.57
2019-05-20T22:32:27.281Z,23.87
2019-05-20T22:34:56.269Z,24.00
2019-05-20T22:37:25.316Z,22.87
2019-05-20T22:39:54.312Z,24.17
2019-05-20T22:42:23.620Z,24.90
2019-05-20T22:44:52.600Z,24.77
2019-05-20T22:47:21.595Z,23.50
2019-05-20T22:49:50.568Z,25.07
2019-05-20T22:52:19.604Z,24.20
2019-05-20T22:54:49.055Z,24.23
2019-05-20T22:57:18.289Z,23.13
2019-05-20T22:59:47.210Z,26.37
2019-05-20T23:02:16.253Z,22.40
2019-05-20T23:04:45.232Z,23.30
2019-05-20T23:07:14.145Z,22.63
2019-05-20T23:09:43.121Z,23.17
2019-05-20T23:12:12.373Z,22.43
2019-05-20T23:14:41.345Z,20.67
2019-05-20T23:17:10.343Z,18.93
2019-05-20T23:19:39.293Z,18.63
2019-05-20T23:22:08.529Z,19.03
2019-05-20T23:24:37.476Z,19.30
2019-05-20T23:27:06.454Z,18.73
2019-05-20T23:29:35.401Z,19.03
2019-05-20T23:32:04.518Z,18.70
2019-05-20T23:34:33.569Z,19.70
2019-05-20T23:37:02.525Z,19.47
2019-05-20T23:39:31.445Z,18.80
2019-05-20T23:42:00.693Z,18.97
2019-05-20T23:44:29.953Z,18.53
2019-05-20T23:46:58.949Z,19.30
2019-05-20T23:49:27.897Z,18.67
2019-05-20T23:51:56.898Z,17.00
2019-05-20T23:54:25.945Z,16.83
2019-05-20T23:56:54.911Z,16.47
2019-05-20T23:59:24.018Z,17.67
